Portada
METAR-TAF:

METAR-TAF

Aeroports :

Gwened, França

latitud: 47-43-19N, longitud: 2-43-41W, altitud: 130 m

Observació

L'informe es va fer fa 31 minuts, a les 15:00 UTC
Vent 9 kt del Sud/Sud-Oest, variant entre Sud/Sud-Est i Oest/Sud-Oest
Temperatura 11°C
Humitat 94%
Pressió 1018 hPa
Visibilitat: 6000 m
Cel ennuvolat a una alçada de 600 ft
Cel cobert a una alçada de 1100 ft
pluja, plugim

METAR: LFRV 101500Z AUTO 20009KT 160V240 6000 -RADZ BKN006 OVC011 11/10 Q1018

Hora: 16:31 (15:31 UTC)


TAF: manca

Observacions i pronòstics meteorològics de més de 4000 aeroports (METAR i TAF).

Les estacions disponibles són els punts grocs i vermells al mapa.

Posi el ratolí al punt desitjat per veure el nom de l'estació.

Feu clic per veure les observacions i els pronòstics meteorològics.

Per canviar el mapa: feu clic els botons verds amb una creu de color negre per apropar; al botó verd amb un guió per allunyar la imatge; o en les fletxes verdes per a mapes adjacents.


METAR-TAF: